createdAt,value
2023-01-20T00:00:23.680Z,0
2023-01-20T00:01:32.838Z,0
2023-01-20T00:02:42.024Z,0
2023-01-20T00:03:51.193Z,0
2023-01-20T00:05:00.447Z,0
2023-01-20T00:06:09.535Z,0
2023-01-20T00:07:18.708Z,0
2023-01-20T00:08:27.898Z,0
2023-01-20T00:09:37.069Z,0
2023-01-20T00:10:46.232Z,0
2023-01-20T00:11:54.415Z,0
2023-01-20T00:13:03.597Z,0
2023-01-20T00:14:12.767Z,0
2023-01-20T00:15:22.044Z,0
2023-01-20T00:16:31.105Z,0
2023-01-20T00:17:40.304Z,0
2023-01-20T00:18:49.447Z,0
2023-01-20T00:19:57.735Z,0
2023-01-20T00:21:05.888Z,0
2023-01-20T00:22:14.045Z,0
2023-01-20T00:23:23.329Z,0
2023-01-20T00:24:31.420Z,0
2023-01-20T00:25:40.563Z,0
2023-01-20T00:26:49.735Z,0
2023-01-20T00:27:58.915Z,0
2023-01-20T00:29:08.091Z,0
2023-01-20T00:30:17.255Z,0
2023-01-20T00:31:26.420Z,0
2023-01-20T00:32:35.590Z,0
2023-01-20T00:33:44.793Z,0
2023-01-20T00:34:53.948Z,0
2023-01-20T00:36:03.130Z,0
2023-01-20T00:37:12.302Z,0
2023-01-20T00:38:21.491Z,0
2023-01-20T00:39:29.659Z,0
2023-01-20T00:41:48.007Z,0
2023-01-20T00:42:57.203Z,0
2023-01-20T00:44:06.349Z,0
2023-01-20T00:45:15.613Z,0
2023-01-20T00:46:24.707Z,0
2023-01-20T00:47:32.907Z,0
2023-01-20T00:48:41.106Z,0
2023-01-20T00:49:50.259Z,0
2023-01-20T00:50:59.428Z,0
2023-01-20T00:52:08.603Z,0
2023-01-20T00:53:17.785Z,0
2023-01-20T00:54:26.944Z,0
2023-01-20T00:55:36.129Z,0
2023-01-20T00:56:45.286Z,0
2023-01-20T00:57:54.462Z,0
2023-01-20T00:59:03.687Z,0
2023-01-20T01:00:12.813Z,0
2023-01-20T01:01:21.996Z,0
2023-01-20T01:02:31.191Z,0
2023-01-20T01:03:39.350Z,0
2023-01-20T01:04:48.522Z,0
2023-01-20T01:05:57.695Z,0
2023-01-20T01:07:06.866Z,0
2023-01-20T01:08:16.060Z,0
2023-01-20T01:09:25.212Z,0
2023-01-20T01:10:34.373Z,0
2023-01-20T01:11:42.603Z,0
2023-01-20T01:12:50.756Z,0
2023-01-20T01:13:58.968Z,0
2023-01-20T01:15:07.205Z,0
2023-01-20T01:16:15.352Z,0
2023-01-20T01:17:23.542Z,0
2023-01-20T01:18:32.707Z,0
2023-01-20T01:19:41.882Z,0
2023-01-20T01:20:51.066Z,0
2023-01-20T01:22:00.234Z,0
2023-01-20T01:23:09.395Z,0
2023-01-20T01:24:18.577Z,0
2023-01-20T01:25:27.751Z,0
2023-01-20T01:26:36.915Z,0
2023-01-20T01:27:46.102Z,0
2023-01-20T01:30:04.445Z,0
2023-01-20T01:31:13.614Z,0
2023-01-20T01:32:21.810Z,0
2023-01-20T01:33:30.980Z,0
2023-01-20T01:34:40.147Z,0
2023-01-20T01:35:49.320Z,0
2023-01-20T01:36:58.538Z,0
2023-01-20T01:38:07.670Z,0
2023-01-20T01:39:16.837Z,0
2023-01-20T01:40:26.021Z,0
2023-01-20T01:41:34.202Z,0
2023-01-20T01:42:42.394Z,0
2023-01-20T01:43:50.591Z,0
2023-01-20T01:44:59.756Z,0
2023-01-20T01:46:07.998Z,0
2023-01-20T01:47:17.120Z,0
2023-01-20T01:48:26.313Z,0
2023-01-20T01:49:35.467Z,0
2023-01-20T01:50:44.653Z,0
2023-01-20T01:51:53.823Z,0
2023-01-20T01:53:02.992Z,0
2023-01-20T01:54:12.174Z,0
2023-01-20T01:55:21.341Z,0
2023-01-20T01:56:30.507Z,0
2023-01-20T01:57:39.683Z,0
2023-01-20T01:58:48.860Z,0
2023-01-20T01:59:58.033Z,0
2023-01-20T02:01:06.231Z,0
2023-01-20T02:02:15.446Z,0
2023-01-20T02:03:24.568Z,0
2023-01-20T02:04:33.754Z,0
2023-01-20T02:05:42.947Z,0
2023-01-20T02:06:52.109Z,0
2023-01-20T02:08:01.267Z,0
2023-01-20T02:09:09.466Z,0
2023-01-20T02:10:17.654Z,0
2023-01-20T02:11:26.813Z,0
2023-01-20T02:12:35.007Z,0
2023-01-20T02:13:43.213Z,0
2023-01-20T02:14:52.383Z,0
2023-01-20T02:16:01.537Z,0
2023-01-20T02:17:10.713Z,0
2023-01-20T02:18:19.890Z,0
2023-01-20T02:19:29.063Z,0
2023-01-20T02:20:38.235Z,0
2023-01-20T02:21:47.413Z,0
2023-01-20T02:22:56.577Z,0
2023-01-20T02:24:05.764Z,0
2023-01-20T02:25:14.923Z,0
2023-01-20T02:26:24.130Z,0
2023-01-20T02:27:33.304Z,0
2023-01-20T02:28:41.474Z,0
2023-01-20T02:29:50.644Z,0
2023-01-20T02:30:59.809Z,0
2023-01-20T02:32:08.983Z,0
2023-01-20T02:33:18.156Z,0
2023-01-20T02:34:27.329Z,0
2023-01-20T02:35:36.523Z,0
2023-01-20T02:36:44.692Z,0
2023-01-20T02:37:52.889Z,0
2023-01-20T02:39:01.078Z,0
2023-01-20T02:40:09.271Z,0
2023-01-20T02:41:18.446Z,0
2023-01-20T02:42:27.620Z,0
2023-01-20T02:43:36.790Z,0
2023-01-20T02:44:45.960Z,0
2023-01-20T02:45:55.138Z,0
2023-01-20T02:47:04.304Z,0
2023-01-20T02:48:13.478Z,0
2023-01-20T02:49:22.650Z,0
2023-01-20T02:50:31.828Z,0
2023-01-20T02:51:40.994Z,0
2023-01-20T02:52:50.180Z,0
2023-01-20T02:53:59.334Z,0
2023-01-20T02:55:07.534Z,0
2023-01-20T02:56:16.735Z,0
2023-01-20T02:57:25.873Z,0
2023-01-20T02:58:35.061Z,0
2023-01-20T02:59:44.225Z,0
2023-01-20T03:00:53.393Z,0
2023-01-20T03:02:02.561Z,0
2023-01-20T03:03:10.777Z,0
2023-01-20T03:04:19.939Z,0
2023-01-20T03:05:28.141Z,0
2023-01-20T03:06:36.324Z,0
2023-01-20T03:07:45.498Z,0
2023-01-20T03:08:54.664Z,0
2023-01-20T03:10:03.867Z,0
2023-01-20T03:11:13.024Z,0
2023-01-20T03:12:22.298Z,0
2023-01-20T03:13:31.361Z,0
2023-01-20T03:14:40.528Z,0
2023-01-20T03:15:49.707Z,0
2023-01-20T03:16:58.892Z,0
2023-01-20T03:18:08.056Z,0
2023-01-20T03:19:17.223Z,0
2023-01-20T03:20:26.411Z,0
2023-01-20T03:21:34.584Z,0
2023-01-20T03:22:43.753Z,0
2023-01-20T03:23:52.937Z,0
2023-01-20T03:25:02.141Z,0
2023-01-20T03:26:11.302Z,0
2023-01-20T03:27:20.444Z,0
2023-01-20T03:28:29.609Z,0
2023-01-20T03:29:38.801Z,0
2023-01-20T03:30:47.968Z,0
2023-01-20T03:31:57.148Z,0
2023-01-20T03:33:06.318Z,0
2023-01-20T03:34:15.484Z,0
2023-01-20T03:35:24.652Z,0
2023-01-20T03:36:32.882Z,0
2023-01-20T03:37:41.097Z,0
2023-01-20T03:38:50.230Z,0
2023-01-20T03:39:59.388Z,0
2023-01-20T03:41:07.590Z,0
2023-01-20T03:42:15.781Z,0
2023-01-20T03:43:24.955Z,0
2023-01-20T03:44:34.127Z,0
2023-01-20T03:45:43.291Z,0
2023-01-20T03:46:52.464Z,0
2023-01-20T03:48:01.639Z,0
2023-01-20T03:49:10.817Z,0
2023-01-20T03:50:19.984Z,0
2023-01-20T03:51:29.168Z,0
2023-01-20T03:52:38.345Z,0
2023-01-20T03:53:47.532Z,0
2023-01-20T03:54:56.700Z,0
2023-01-20T03:56:05.855Z,0
2023-01-20T03:57:14.058Z,0
2023-01-20T03:58:23.240Z,0
2023-01-20T03:59:32.416Z,0
2023-01-20T04:00:41.570Z,0
2023-01-20T04:01:50.744Z,0
2023-01-20T04:02:59.921Z,0
2023-01-20T04:04:09.094Z,0
2023-01-20T04:05:17.359Z,0
2023-01-20T04:06:25.470Z,0
2023-01-20T04:07:34.644Z,0
2023-01-20T04:08:43.809Z,0
2023-01-20T04:09:53.004Z,0
2023-01-20T04:11:02.165Z,0
2023-01-20T04:12:11.351Z,0
2023-01-20T04:13:20.502Z,0
2023-01-20T04:14:29.675Z,0
2023-01-20T04:15:38.858Z,0
2023-01-20T04:16:48.021Z,0
2023-01-20T04:17:57.207Z,0
2023-01-20T04:19:06.375Z,0
2023-01-20T04:20:15.552Z,0
2023-01-20T04:21:23.720Z,0
2023-01-20T04:22:32.912Z,0
2023-01-20T04:23:42.090Z,0
2023-01-20T04:24:51.256Z,0
2023-01-20T04:26:00.434Z,0
2023-01-20T04:27:09.607Z,0
2023-01-20T04:28:18.778Z,0
2023-01-20T04:29:26.981Z,0
2023-01-20T04:30:35.154Z,0
2023-01-20T04:31:44.323Z,0
2023-01-20T04:32:53.505Z,0
2023-01-20T04:34:02.672Z,0
2023-01-20T04:35:11.863Z,0
2023-01-20T04:36:21.026Z,0
2023-01-20T04:37:30.194Z,0
2023-01-20T04:38:39.375Z,0
2023-01-20T04:39:48.539Z,0
2023-01-20T04:40:57.718Z,0
2023-01-20T04:42:06.890Z,0
2023-01-20T04:43:16.056Z,0
2023-01-20T04:44:25.313Z,0
2023-01-20T04:45:33.420Z,0
2023-01-20T04:46:42.599Z,0
2023-01-20T04:47:51.765Z,0
2023-01-20T04:49:00.948Z,0
2023-01-20T04:50:10.126Z,0
2023-01-20T04:52:28.479Z,0
2023-01-20T04:53:37.634Z,0
2023-01-20T04:54:45.835Z,0
2023-01-20T04:55:54.009Z,0
2023-01-20T04:57:03.229Z,0
2023-01-20T04:58:11.387Z,0
2023-01-20T04:59:19.577Z,0
2023-01-20T05:00:27.774Z,0
2023-01-20T05:01:35.963Z,0
2023-01-20T05:02:45.171Z,0
2023-01-20T05:03:54.319Z,0
2023-01-20T05:05:03.512Z,0
2023-01-20T05:06:12.646Z,0
2023-01-20T05:07:21.828Z,0
2023-01-20T05:08:31.004Z,0
2023-01-20T05:09:40.184Z,0
2023-01-20T05:10:49.340Z,0
2023-01-20T05:11:58.520Z,0
2023-01-20T05:13:07.693Z,0
2023-01-20T05:14:16.853Z,0
2023-01-20T05:15:26.036Z,0
2023-01-20T05:16:34.247Z,0
2023-01-20T05:17:43.398Z,0
2023-01-20T05:18:52.587Z,0
2023-01-20T05:20:01.746Z,0
2023-01-20T05:21:10.913Z,0
2023-01-20T05:22:20.083Z,0
2023-01-20T05:23:29.262Z,0
2023-01-20T05:24:37.467Z,0
2023-01-20T05:25:45.640Z,0
2023-01-20T05:26:53.897Z,0
2023-01-20T05:28:02.066Z,0
2023-01-20T05:29:11.200Z,0
2023-01-20T05:30:20.396Z,9
2023-01-20T05:31:29.606Z,7
2023-01-20T05:32:38.727Z,0
2023-01-20T05:33:47.890Z,0
2023-01-20T05:34:57.068Z,0
2023-01-20T05:36:06.300Z,0
2023-01-20T05:37:15.440Z,0
2023-01-20T05:38:24.580Z,0
2023-01-20T05:39:33.767Z,0
2023-01-20T05:40:42.958Z,0
2023-01-20T05:41:52.120Z,0
2023-01-20T05:43:00.300Z,0
2023-01-20T05:44:09.468Z,0
2023-01-20T05:45:18.644Z,0
2023-01-20T05:46:27.827Z,0
2023-01-20T05:47:36.984Z,0
2023-01-20T05:48:46.161Z,3
2023-01-20T05:49:55.327Z,3
2023-01-20T05:51:03.571Z,3
2023-01-20T05:52:11.740Z,3
2023-01-20T05:53:20.896Z,3
2023-01-20T05:54:30.087Z,3
2023-01-20T05:55:38.272Z,0
2023-01-20T05:56:46.469Z,0
2023-01-20T05:57:55.635Z,0
2023-01-20T05:59:04.836Z,0
2023-01-20T06:00:13.982Z,3
2023-01-20T06:01:23.154Z,0
2023-01-20T06:02:32.326Z,0
2023-01-20T06:03:41.489Z,0
2023-01-20T06:04:50.688Z,0
2023-01-20T06:05:59.852Z,0
2023-01-20T06:07:09.069Z,0
2023-01-20T06:08:18.192Z,0
2023-01-20T06:09:27.367Z,0
2023-01-20T06:10:36.576Z,0
2023-01-20T06:11:44.726Z,0
2023-01-20T06:12:53.889Z,0
2023-01-20T06:14:03.072Z,0
2023-01-20T06:15:12.249Z,0
2023-01-20T06:16:21.409Z,0
2023-01-20T06:17:30.609Z,0
2023-01-20T06:18:39.777Z,0
2023-01-20T06:19:47.963Z,0
2023-01-20T06:20:56.152Z,0
2023-01-20T06:22:04.337Z,0
2023-01-20T06:23:12.535Z,0
2023-01-20T06:24:21.702Z,0
2023-01-20T06:25:30.875Z,0
2023-01-20T06:26:40.066Z,0
2023-01-20T06:27:49.223Z,0
2023-01-20T06:28:58.396Z,0
2023-01-20T06:30:07.636Z,0
2023-01-20T06:31:16.822Z,7
2023-01-20T06:32:25.982Z,0
2023-01-20T06:33:35.341Z,0
2023-01-20T06:34:44.327Z,0
2023-01-20T06:35:53.497Z,0
2023-01-20T06:37:02.673Z,0
2023-01-20T06:38:10.856Z,0
2023-01-20T06:39:20.030Z,0
2023-01-20T06:40:29.197Z,0
2023-01-20T06:41:38.415Z,0
2023-01-20T06:42:47.551Z,0
2023-01-20T06:43:56.720Z,0
2023-01-20T06:45:05.895Z,0
2023-01-20T06:46:14.093Z,0
2023-01-20T06:47:22.280Z,0
2023-01-20T06:48:31.450Z,0
2023-01-20T06:49:39.652Z,0
2023-01-20T06:50:47.843Z,0
2023-01-20T06:51:57.006Z,0
2023-01-20T06:53:06.189Z,0
2023-01-20T06:54:15.360Z,3
2023-01-20T06:55:24.674Z,3
2023-01-20T06:56:33.707Z,3
2023-01-20T06:57:42.911Z,3
2023-01-20T06:58:52.071Z,3
2023-01-20T07:00:01.236Z,3
2023-01-20T07:01:10.434Z,3
2023-01-20T07:02:19.573Z,4
2023-01-20T07:03:28.750Z,0
2023-01-20T07:04:37.919Z,4
2023-01-20T07:05:46.117Z,4
2023-01-20T07:06:55.369Z,1
2023-01-20T07:08:04.459Z,1
2023-01-20T07:09:13.626Z,9
2023-01-20T07:10:22.797Z,5
2023-01-20T07:11:31.998Z,10
2023-01-20T07:12:41.138Z,6
2023-01-20T07:13:49.339Z,6
2023-01-20T07:14:57.530Z,14
2023-01-20T07:16:05.726Z,19
2023-01-20T07:17:13.924Z,19
2023-01-20T07:18:23.082Z,36
2023-01-20T07:19:32.259Z,37
2023-01-20T07:20:41.443Z,37
2023-01-20T07:21:50.595Z,45
2023-01-20T07:22:59.801Z,45
2023-01-20T07:24:08.963Z,41
2023-01-20T07:25:18.122Z,46
2023-01-20T07:26:27.300Z,55
2023-01-20T07:27:36.461Z,56
2023-01-20T07:28:45.644Z,74
2023-01-20T07:29:54.814Z,91
2023-01-20T07:31:03.981Z,100
2023-01-20T07:32:13.148Z,100
2023-01-20T07:33:21.349Z,96
2023-01-20T07:34:30.520Z,106
2023-01-20T07:35:39.684Z,141
2023-01-20T07:36:48.861Z,132
2023-01-20T07:37:58.038Z,149
2023-01-20T07:39:07.212Z,154
2023-01-20T07:40:16.397Z,159
2023-01-20T07:41:24.617Z,151
2023-01-20T07:42:32.776Z,170
2023-01-20T07:43:41.946Z,192
2023-01-20T07:44:50.143Z,218
2023-01-20T07:45:58.340Z,206
2023-01-20T07:48:16.752Z,222
2023-01-20T07:49:25.912Z,213
2023-01-20T07:50:35.015Z,241
2023-01-20T07:51:44.185Z,232
2023-01-20T07:52:53.424Z,211
2023-01-20T07:54:02.601Z,213
2023-01-20T07:55:11.791Z,209
2023-01-20T07:56:20.999Z,213
2023-01-20T07:57:30.081Z,243
2023-01-20T07:58:39.286Z,273
2023-01-20T07:59:48.429Z,286
2023-01-20T08:00:56.602Z,304
2023-01-20T08:02:05.774Z,356
2023-01-20T08:03:14.943Z,377
2023-01-20T08:04:24.178Z,394
2023-01-20T08:05:33.304Z,348
2023-01-20T08:06:42.456Z,313
2023-01-20T08:07:51.622Z,380
2023-01-20T08:09:00.816Z,422
2023-01-20T08:10:09.003Z,481
2023-01-20T08:11:17.193Z,427
2023-01-20T08:13:35.528Z,523
2023-01-20T08:14:44.706Z,498
2023-01-20T08:15:52.935Z,434
2023-01-20T08:17:01.114Z,457
2023-01-20T08:18:10.273Z,455
2023-01-20T08:19:19.484Z,460
2023-01-20T08:20:28.606Z,505
2023-01-20T08:21:37.818Z,512
2023-01-20T08:22:46.988Z,547
2023-01-20T08:23:56.133Z,575
2023-01-20T08:25:05.325Z,635
2023-01-20T08:26:14.510Z,590
2023-01-20T08:27:23.653Z,541
2023-01-20T08:28:34.742Z,504
2023-01-20T08:29:42.001Z,548
2023-01-20T08:30:51.166Z,662
2023-01-20T08:31:59.380Z,729
2023-01-20T08:33:08.531Z,836
2023-01-20T08:34:17.700Z,1011
2023-01-20T08:35:26.881Z,1041
2023-01-20T08:36:36.077Z,983
2023-01-20T08:37:45.244Z,873
2023-01-20T08:38:54.465Z,849
2023-01-20T08:40:02.620Z,983
2023-01-20T08:41:10.800Z,1054
2023-01-20T08:42:18.975Z,1045
2023-01-20T08:43:27.175Z,1202
2023-01-20T08:44:36.351Z,1254
2023-01-20T08:45:45.513Z,1227
2023-01-20T08:46:54.764Z,1173
2023-01-20T08:48:03.869Z,1036
2023-01-20T08:49:13.031Z,1177
2023-01-20T08:50:22.222Z,1195
2023-01-20T08:51:31.387Z,1159
2023-01-20T08:52:40.578Z,1183
2023-01-20T08:53:49.738Z,1163
2023-01-20T08:54:58.933Z,1357
2023-01-20T08:56:08.069Z,1438
2023-01-20T08:57:17.257Z,1376
2023-01-20T08:58:25.447Z,1245
2023-01-20T08:59:34.607Z,1324
2023-01-20T09:00:43.787Z,1506
2023-01-20T09:01:52.964Z,1433
2023-01-20T09:03:02.137Z,1495
2023-01-20T09:04:11.299Z,1569
2023-01-20T09:05:20.478Z,1656
2023-01-20T09:06:28.669Z,1596
2023-01-20T09:07:36.869Z,1409
2023-01-20T09:08:45.058Z,1139
2023-01-20T09:09:53.239Z,1213
2023-01-20T09:11:02.420Z,1351
2023-01-20T09:12:11.594Z,1253
2023-01-20T09:13:20.764Z,1267
2023-01-20T09:14:30.037Z,1298
2023-01-20T09:15:39.122Z,1398
2023-01-20T09:16:48.282Z,1433
2023-01-20T09:17:57.457Z,1689
2023-01-20T09:19:06.621Z,1730
2023-01-20T09:20:15.802Z,1803
2023-01-20T09:21:24.983Z,2105
2023-01-20T09:22:34.151Z,2455
2023-01-20T09:23:43.327Z,2400
2023-01-20T09:24:51.508Z,2152
2023-01-20T09:27:09.853Z,2016
2023-01-20T09:28:19.024Z,2000
2023-01-20T09:29:28.206Z,2057
2023-01-20T09:30:37.361Z,2271
2023-01-20T09:31:46.539Z,2581
2023-01-20T09:32:55.714Z,2453
2023-01-20T09:34:03.908Z,2474
2023-01-20T09:35:12.326Z,2671
2023-01-20T09:36:21.268Z,2735
2023-01-20T09:37:29.464Z,2489
2023-01-20T09:38:37.660Z,2761
2023-01-20T09:39:46.921Z,2417
2023-01-20T09:40:56.010Z,2641
2023-01-20T09:42:05.180Z,2697
2023-01-20T09:43:13.374Z,2814
2023-01-20T09:44:22.546Z,2254
2023-01-20T09:45:31.766Z,2370
2023-01-20T09:46:40.887Z,2193
2023-01-20T09:48:59.269Z,1994
2023-01-20T09:50:08.407Z,1887
2023-01-20T09:51:17.583Z,1813
2023-01-20T09:52:26.768Z,1746
2023-01-20T09:53:35.930Z,1589
2023-01-20T09:54:45.097Z,1875
2023-01-20T09:55:54.274Z,1909
2023-01-20T09:57:03.445Z,1905
2023-01-20T09:58:12.609Z,1737
2023-01-20T09:59:20.801Z,1636
2023-01-20T10:00:29.984Z,2105
2023-01-20T10:01:39.153Z,2400
2023-01-20T10:02:47.365Z,2117
2023-01-20T10:03:55.531Z,1809
2023-01-20T10:05:03.733Z,1949
2023-01-20T10:06:11.944Z,2465
2023-01-20T10:07:21.092Z,2448
2023-01-20T10:08:30.265Z,1926
2023-01-20T10:09:39.444Z,1950
2023-01-20T10:10:48.619Z,2206
2023-01-20T10:11:57.894Z,2056
2023-01-20T10:13:06.962Z,1567
2023-01-20T10:14:16.163Z,1913
2023-01-20T10:15:25.352Z,2855
2023-01-20T10:16:34.493Z,2941
2023-01-20T10:17:43.649Z,2461
2023-01-20T10:18:52.818Z,2299
2023-01-20T10:20:01.990Z,2488
2023-01-20T10:21:10.181Z,2872
2023-01-20T10:22:19.360Z,2884
2023-01-20T10:23:28.554Z,2617
2023-01-20T10:24:37.717Z,2329
2023-01-20T10:25:46.873Z,2494
2023-01-20T10:26:56.058Z,2923
2023-01-20T10:28:05.246Z,3328
2023-01-20T10:29:13.415Z,3328
2023-01-20T10:30:22.584Z,3328
2023-01-20T10:31:30.780Z,3637
2023-01-20T10:32:38.971Z,3561
2023-01-20T10:33:48.349Z,3613
2023-01-20T10:34:57.341Z,3492
2023-01-20T10:36:06.600Z,3414
2023-01-20T10:37:15.658Z,3276
2023-01-20T10:38:24.895Z,3052
2023-01-20T10:39:34.014Z,3245
2023-01-20T10:40:43.187Z,3251
2023-01-20T10:41:52.359Z,3358
2023-01-20T10:43:01.525Z,3366
2023-01-20T10:44:10.691Z,3361
2023-01-20T10:45:19.861Z,3168
2023-01-20T10:46:29.051Z,3115
2023-01-20T10:47:37.227Z,3118
2023-01-20T10:48:46.410Z,3079
2023-01-20T10:49:55.577Z,2832
2023-01-20T10:51:04.754Z,2981
2023-01-20T10:52:13.915Z,3241
2023-01-20T10:53:23.136Z,3638
2023-01-20T10:54:32.273Z,3531
2023-01-20T10:55:40.459Z,3061
2023-01-20T10:56:48.652Z,2857
2023-01-20T10:57:56.857Z,2913
2023-01-20T10:59:06.017Z,2782
2023-01-20T11:00:14.200Z,2546
2023-01-20T11:01:23.391Z,2573
2023-01-20T11:02:32.573Z,2510
2023-01-20T11:03:41.769Z,2397
2023-01-20T11:04:50.911Z,2398
2023-01-20T11:06:00.090Z,2838
2023-01-20T11:07:09.257Z,2994
2023-01-20T11:08:18.427Z,2768
2023-01-20T11:09:27.589Z,2466
2023-01-20T11:10:36.768Z,2323
2023-01-20T11:11:45.941Z,2311
2023-01-20T11:12:55.200Z,2294
2023-01-20T11:14:04.285Z,2510
2023-01-20T11:15:12.466Z,2643
2023-01-20T11:16:21.716Z,2665
2023-01-20T11:17:30.842Z,2713
2023-01-20T11:18:39.994Z,2675
2023-01-20T11:19:49.180Z,2620
2023-01-20T11:20:58.346Z,2522
2023-01-20T11:22:06.595Z,2514
2023-01-20T11:23:14.720Z,2357
2023-01-20T11:24:23.896Z,2395
2023-01-20T11:25:33.063Z,2862
2023-01-20T11:26:41.259Z,2981
2023-01-20T11:27:49.456Z,2873
2023-01-20T11:28:58.677Z,2604
2023-01-20T11:30:07.837Z,2305
2023-01-20T11:31:16.997Z,2270
2023-01-20T11:32:26.139Z,2349
2023-01-20T11:33:35.342Z,2366
2023-01-20T11:34:44.484Z,2346
2023-01-20T11:35:53.662Z,2423
2023-01-20T11:37:02.838Z,2656
2023-01-20T11:38:12.004Z,2742
2023-01-20T11:39:21.176Z,2821
2023-01-20T11:40:30.354Z,2986
2023-01-20T11:41:39.554Z,3075
2023-01-20T11:42:47.718Z,3175
2023-01-20T11:43:56.893Z,3177
2023-01-20T11:45:06.083Z,3141
2023-01-20T11:46:15.235Z,2914
2023-01-20T11:47:24.401Z,2882
2023-01-20T11:48:33.706Z,2887
2023-01-20T11:49:42.772Z,2801
2023-01-20T11:50:50.949Z,2745
2023-01-20T11:51:59.145Z,2741
2023-01-20T11:53:08.306Z,2714
2023-01-20T11:54:17.499Z,2962
2023-01-20T11:55:26.738Z,3059
2023-01-20T11:56:35.826Z,3027
2023-01-20T11:57:44.997Z,2996
2023-01-20T11:58:54.177Z,2798
2023-01-20T12:00:03.368Z,2702
2023-01-20T12:01:12.528Z,2854
2023-01-20T12:02:21.679Z,2894
2023-01-20T12:03:30.861Z,2843
2023-01-20T12:04:40.044Z,2697
2023-01-20T12:05:49.206Z,2591
2023-01-20T12:06:57.398Z,2513
2023-01-20T12:08:06.566Z,2592
2023-01-20T12:09:15.742Z,2654
2023-01-20T12:10:24.919Z,2751
2023-01-20T12:11:34.089Z,2788
2023-01-20T12:12:43.260Z,2758
2023-01-20T12:13:52.438Z,2434
2023-01-20T12:15:00.653Z,2409
2023-01-20T12:16:08.998Z,2345
2023-01-20T12:17:18.106Z,2350
2023-01-20T12:18:27.166Z,2374
2023-01-20T12:19:36.333Z,2512
2023-01-20T12:20:45.511Z,2626
2023-01-20T12:21:54.685Z,2589
2023-01-20T12:23:03.851Z,2374
2023-01-20T12:24:13.024Z,2303
2023-01-20T12:25:22.191Z,2385
2023-01-20T12:26:31.371Z,2411
2023-01-20T12:27:40.543Z,2382
2023-01-20T12:28:49.729Z,2241
2023-01-20T12:29:58.892Z,2064
2023-01-20T12:31:07.098Z,1994
2023-01-20T12:32:16.254Z,2035
2023-01-20T12:33:25.481Z,2028
2023-01-20T12:34:34.620Z,2033
2023-01-20T12:35:43.772Z,1967
2023-01-20T12:36:52.947Z,1938
2023-01-20T12:38:02.168Z,1914
2023-01-20T12:39:10.316Z,1874
2023-01-20T12:40:18.501Z,1810
2023-01-20T12:41:26.710Z,1787
2023-01-20T12:42:34.882Z,1843
2023-01-20T12:43:43.074Z,1881
2023-01-20T12:44:51.371Z,2013
2023-01-20T12:45:59.460Z,2232
2023-01-20T12:47:07.709Z,2399
2023-01-20T12:48:16.820Z,2443
2023-01-20T12:49:25.018Z,2362
2023-01-20T12:50:33.224Z,2165
2023-01-20T12:51:42.403Z,2033
2023-01-20T12:52:51.556Z,1924
2023-01-20T12:54:00.721Z,1908
2023-01-20T12:55:09.890Z,1945
2023-01-20T12:56:19.063Z,1993
2023-01-20T12:57:28.247Z,2031
2023-01-20T12:58:37.436Z,2023
2023-01-20T12:59:46.587Z,1998
2023-01-20T13:00:55.753Z,2015
2023-01-20T13:02:04.925Z,2095
2023-01-20T13:03:14.107Z,2136
2023-01-20T13:04:23.305Z,2160
2023-01-20T13:05:31.467Z,2187
2023-01-20T13:06:40.652Z,2254
2023-01-20T13:07:49.810Z,2348
2023-01-20T13:08:58.987Z,2465
2023-01-20T13:10:08.189Z,2489
2023-01-20T13:11:17.381Z,2411
2023-01-20T13:12:26.510Z,2320
2023-01-20T13:13:34.698Z,2246
2023-01-20T13:14:42.885Z,2284
2023-01-20T13:15:52.057Z,2322
2023-01-20T13:17:01.231Z,2298
2023-01-20T13:18:10.400Z,2312
2023-01-20T13:19:19.586Z,2346
2023-01-20T13:20:28.744Z,2458
2023-01-20T13:21:37.933Z,2687
2023-01-20T13:22:47.115Z,2825
2023-01-20T13:23:56.262Z,2901
2023-01-20T13:25:05.541Z,2796
2023-01-20T13:26:14.614Z,2624
2023-01-20T13:27:23.778Z,2405
2023-01-20T13:28:33.040Z,2182
2023-01-20T13:29:41.149Z,2009
2023-01-20T13:30:50.321Z,1837
2023-01-20T13:31:59.509Z,1711
2023-01-20T13:33:08.673Z,1646
2023-01-20T13:34:16.867Z,1643
2023-01-20T13:35:26.038Z,1713
2023-01-20T13:36:35.211Z,1777
2023-01-20T13:37:43.400Z,1807
2023-01-20T13:38:51.607Z,1848
2023-01-20T13:40:00.770Z,1866
2023-01-20T13:41:08.968Z,1906
2023-01-20T13:42:17.153Z,2037
2023-01-20T13:43:25.353Z,2176
2023-01-20T13:44:33.554Z,2267
2023-01-20T13:45:42.705Z,2272
2023-01-20T13:46:51.892Z,2238
2023-01-20T13:48:01.058Z,2172
2023-01-20T13:49:10.235Z,2082
2023-01-20T13:50:19.397Z,2019
2023-01-20T13:51:28.573Z,2026
2023-01-20T13:52:37.737Z,1995
2023-01-20T13:53:46.921Z,1947
2023-01-20T13:54:56.169Z,1905
2023-01-20T13:56:05.364Z,1867
2023-01-20T13:57:14.441Z,1843
2023-01-20T13:58:23.602Z,1852
2023-01-20T13:59:31.790Z,1743
2023-01-20T14:00:40.966Z,1543
2023-01-20T14:01:50.138Z,1358
2023-01-20T14:02:59.321Z,1201
2023-01-20T14:05:17.821Z,955
2023-01-20T14:06:26.827Z,929
2023-01-20T14:07:36.010Z,935
2023-01-20T14:08:44.197Z,973
2023-01-20T14:09:52.398Z,998
2023-01-20T14:11:01.568Z,995
2023-01-20T14:12:09.753Z,985
2023-01-20T14:13:17.946Z,992
2023-01-20T14:14:27.122Z,971
2023-01-20T14:15:36.298Z,955
2023-01-20T14:16:45.474Z,977
2023-01-20T14:17:54.637Z,975
2023-01-20T14:19:03.794Z,976
2023-01-20T14:20:13.029Z,1023
2023-01-20T14:21:22.152Z,1104
2023-01-20T14:22:31.393Z,1160
2023-01-20T14:23:40.528Z,1199
2023-01-20T14:24:49.694Z,1245
2023-01-20T14:25:59.016Z,1308
2023-01-20T14:27:08.026Z,1378
2023-01-20T14:28:16.220Z,1399
2023-01-20T14:29:25.379Z,1423
2023-01-20T14:30:34.551Z,1426
2023-01-20T14:31:43.718Z,1374
2023-01-20T14:32:52.951Z,1363
2023-01-20T14:34:02.125Z,1353
2023-01-20T14:35:11.242Z,1363
2023-01-20T14:36:19.436Z,1339
2023-01-20T14:37:27.615Z,1305
2023-01-20T14:38:35.841Z,1245
2023-01-20T14:39:44.004Z,1195
2023-01-20T14:40:53.192Z,1197
2023-01-20T14:42:02.368Z,1205
2023-01-20T14:43:11.533Z,1204
2023-01-20T14:44:20.697Z,1196
2023-01-20T14:45:29.873Z,1165
2023-01-20T14:46:39.064Z,1253
2023-01-20T14:47:48.229Z,1341
2023-01-20T14:48:57.401Z,1362
2023-01-20T14:50:06.566Z,1322
2023-01-20T14:51:15.739Z,1255
2023-01-20T14:52:24.921Z,1197
2023-01-20T14:53:34.086Z,1159
2023-01-20T14:54:42.276Z,1061
2023-01-20T14:55:51.465Z,975
2023-01-20T14:57:00.614Z,905
2023-01-20T14:58:09.817Z,896
2023-01-20T14:59:18.972Z,888
2023-01-20T15:00:28.195Z,915
2023-01-20T15:01:37.329Z,895
2023-01-20T15:02:45.502Z,930
2023-01-20T15:03:53.699Z,940
2023-01-20T15:05:02.872Z,928
2023-01-20T15:06:11.269Z,955
2023-01-20T15:07:20.257Z,1020
2023-01-20T15:08:28.427Z,1100
2023-01-20T15:09:37.587Z,1103
2023-01-20T15:10:46.771Z,1217
2023-01-20T15:11:55.974Z,1178
2023-01-20T15:13:05.132Z,1017
2023-01-20T15:14:14.347Z,981
2023-01-20T15:15:23.460Z,976
2023-01-20T15:16:32.647Z,920
2023-01-20T15:17:41.799Z,851
2023-01-20T15:18:51.021Z,829
2023-01-20T15:20:00.235Z,835
2023-01-20T15:21:09.322Z,837
2023-01-20T15:23:27.675Z,766
2023-01-20T15:24:35.856Z,682
2023-01-20T15:25:45.073Z,599
2023-01-20T15:26:54.216Z,521
2023-01-20T15:28:03.451Z,441
2023-01-20T15:29:12.545Z,400
2023-01-20T15:30:21.774Z,375
2023-01-20T15:31:30.898Z,350
2023-01-20T15:32:39.099Z,329
2023-01-20T15:33:47.278Z,316
2023-01-20T15:34:55.477Z,299
2023-01-20T15:36:03.657Z,284
2023-01-20T15:37:12.837Z,267
2023-01-20T15:38:22.010Z,260
2023-01-20T15:39:31.171Z,257
2023-01-20T15:40:40.355Z,257
2023-01-20T15:41:49.526Z,247
2023-01-20T15:42:58.709Z,240
2023-01-20T15:44:07.880Z,233
2023-01-20T15:45:17.059Z,230
2023-01-20T15:46:26.220Z,222
2023-01-20T15:47:35.387Z,216
2023-01-20T15:48:44.571Z,214
2023-01-20T15:49:53.731Z,198
2023-01-20T15:51:01.994Z,186
2023-01-20T15:52:11.224Z,176
2023-01-20T15:53:20.299Z,168
2023-01-20T15:54:29.450Z,159
2023-01-20T15:55:38.632Z,159
2023-01-20T15:56:47.833Z,155
2023-01-20T15:57:57.020Z,146
2023-01-20T15:59:05.160Z,124
2023-01-20T16:00:13.436Z,132
2023-01-20T16:01:21.542Z,115
2023-01-20T16:02:29.738Z,101
2023-01-20T16:03:38.890Z,88
2023-01-20T16:04:48.072Z,79
2023-01-20T16:05:57.255Z,69
2023-01-20T16:07:06.421Z,60
2023-01-20T16:08:15.597Z,51
2023-01-20T16:09:24.792Z,30
2023-01-20T16:10:33.943Z,29
2023-01-20T16:11:43.118Z,24
2023-01-20T16:12:52.283Z,37
2023-01-20T16:14:01.503Z,28
2023-01-20T16:15:10.649Z,23
2023-01-20T16:16:19.806Z,27
2023-01-20T16:17:27.997Z,36